sensor_id;sensor_type;location;lat;lon;timestamp;P1;durP1;ratioP1;P2;durP2;ratioP2
28904;SDS011;60848;53.884;11.446;2023-04-10T00:01:37;50.92;;;41.30;;
28904;SDS011;60848;53.884;11.446;2023-04-10T00:04:06;51.33;;;43.05;;
28904;SDS011;60848;53.884;11.446;2023-04-10T00:06:35;95.32;;;68.20;;
28904;SDS011;60848;53.884;11.446;2023-04-10T00:09:03;55.15;;;45.72;;
28904;SDS011;60848;53.884;11.446;2023-04-10T00:11:32;51.67;;;41.80;;
28904;SDS011;60848;53.884;11.446;2023-04-10T00:14:00;52.97;;;42.78;;
28904;SDS011;60848;53.884;11.446;2023-04-10T00:16:30;49.75;;;41.78;;
28904;SDS011;60848;53.884;11.446;2023-04-10T00:18:59;50.05;;;41.17;;
28904;SDS011;60848;53.884;11.446;2023-04-10T00:21:28;49.90;;;41.80;;
28904;SDS011;60848;53.884;11.446;2023-04-10T00:23:56;47.97;;;40.83;;
28904;SDS011;60848;53.884;11.446;2023-04-10T00:26:25;49.60;;;42.00;;
28904;SDS011;60848;53.884;11.446;2023-04-10T00:28:53;50.95;;;41.72;;
28904;SDS011;60848;53.884;11.446;2023-04-10T00:31:22;51.38;;;42.08;;
28904;SDS011;60848;53.884;11.446;2023-04-10T00:33:52;50.53;;;42.22;;
28904;SDS011;60848;53.884;11.446;2023-04-10T00:36:21;47.45;;;40.88;;
28904;SDS011;60848;53.884;11.446;2023-04-10T00:38:49;78.38;;;55.13;;
28904;SDS011;60848;53.884;11.446;2023-04-10T00:41:18;50.42;;;41.33;;
28904;SDS011;60848;53.884;11.446;2023-04-10T00:43:46;50.60;;;41.30;;
28904;SDS011;60848;53.884;11.446;2023-04-10T00:46:14;55.03;;;43.45;;
28904;SDS011;60848;53.884;11.446;2023-04-10T00:48:43;55.90;;;42.78;;
28904;SDS011;60848;53.884;11.446;2023-04-10T00:51:13;47.63;;;41.33;;
28904;SDS011;60848;53.884;11.446;2023-04-10T00:53:42;47.65;;;41.65;;
28904;SDS011;60848;53.884;11.446;2023-04-10T00:56:11;44.25;;;39.53;;
28904;SDS011;60848;53.884;11.446;2023-04-10T00:58:40;48.20;;;42.10;;
28904;SDS011;60848;53.884;11.446;2023-04-10T01:01:08;46.30;;;40.83;;
28904;SDS011;60848;53.884;11.446;2023-04-10T01:03:37;46.45;;;41.30;;
28904;SDS011;60848;53.884;11.446;2023-04-10T01:06:11;51.22;;;41.83;;
28904;SDS011;60848;53.884;11.446;2023-04-10T01:08:54;49.30;;;40.95;;
28904;SDS011;60848;53.884;11.446;2023-04-10T01:11:32;46.72;;;41.17;;
28904;SDS011;60848;53.884;11.446;2023-04-10T01:14:15;45.58;;;40.42;;
28904;SDS011;60848;53.884;11.446;2023-04-10T01:16:54;46.00;;;40.70;;
28904;SDS011;60848;53.884;11.446;2023-04-10T01:19:32;45.28;;;40.38;;
28904;SDS011;60848;53.884;11.446;2023-04-10T01:22:34;48.70;;;40.15;;
28904;SDS011;60848;53.884;11.446;2023-04-10T01:28:18;46.55;;;40.90;;
28904;SDS011;60848;53.884;11.446;2023-04-10T01:31:10;45.63;;;40.63;;
28904;SDS011;60848;53.884;11.446;2023-04-10T01:33:46;45.42;;;40.50;;
28904;SDS011;60848;53.884;11.446;2023-04-10T01:36:20;46.55;;;40.40;;
28904;SDS011;60848;53.884;11.446;2023-04-10T01:38:53;45.63;;;39.92;;
28904;SDS011;60848;53.884;11.446;2023-04-10T01:41:24;45.70;;;40.53;;
28904;SDS011;60848;53.884;11.446;2023-04-10T01:43:54;51.88;;;41.38;;
28904;SDS011;60848;53.884;11.446;2023-04-10T01:46:25;45.80;;;40.30;;
28904;SDS011;60848;53.884;11.446;2023-04-10T01:51:28;45.92;;;39.80;;
28904;SDS011;60848;53.884;11.446;2023-04-10T01:53:59;44.83;;;39.83;;
28904;SDS011;60848;53.884;11.446;2023-04-10T01:56:32;45.75;;;40.75;;
28904;SDS011;60848;53.884;11.446;2023-04-10T01:59:01;45.63;;;40.47;;
28904;SDS011;60848;53.884;11.446;2023-04-10T02:01:32;44.88;;;39.92;;
28904;SDS011;60848;53.884;11.446;2023-04-10T02:04:01;46.33;;;39.97;;
28904;SDS011;60848;53.884;11.446;2023-04-10T02:06:32;46.17;;;40.58;;
28904;SDS011;60848;53.884;11.446;2023-04-10T02:09:18;46.70;;;40.38;;
28904;SDS011;60848;53.884;11.446;2023-04-10T02:11:57;44.97;;;39.67;;
28904;SDS011;60848;53.884;11.446;2023-04-10T02:14:29;44.92;;;40.00;;
28904;SDS011;60848;53.884;11.446;2023-04-10T02:17:01;45.65;;;40.60;;
28904;SDS011;60848;53.884;11.446;2023-04-10T02:19:30;46.05;;;40.28;;
28904;SDS011;60848;53.884;11.446;2023-04-10T02:22:02;44.88;;;40.00;;
28904;SDS011;60848;53.884;11.446;2023-04-10T02:24:32;47.78;;;40.25;;
28904;SDS011;60848;53.884;11.446;2023-04-10T02:27:01;45.75;;;40.65;;
28904;SDS011;60848;53.884;11.446;2023-04-10T02:29:30;48.13;;;40.05;;
28904;SDS011;60848;53.884;11.446;2023-04-10T02:31:59;44.58;;;39.78;;
28904;SDS011;60848;53.884;11.446;2023-04-10T02:34:30;45.83;;;40.67;;
28904;SDS011;60848;53.884;11.446;2023-04-10T02:36:58;44.58;;;39.75;;
28904;SDS011;60848;53.884;11.446;2023-04-10T02:39:27;47.08;;;40.85;;
28904;SDS011;60848;53.884;11.446;2023-04-10T02:41:55;45.33;;;40.03;;
28904;SDS011;60848;53.884;11.446;2023-04-10T02:44:24;44.97;;;40.03;;
28904;SDS011;60848;53.884;11.446;2023-04-10T02:46:52;44.88;;;40.03;;
28904;SDS011;60848;53.884;11.446;2023-04-10T02:49:22;45.97;;;40.53;;
28904;SDS011;60848;53.884;11.446;2023-04-10T02:51:51;46.22;;;41.00;;
28904;SDS011;60848;53.884;11.446;2023-04-10T02:54:19;44.80;;;40.03;;
28904;SDS011;60848;53.884;11.446;2023-04-10T02:56:48;47.67;;;40.17;;
28904;SDS011;60848;53.884;11.446;2023-04-10T06:05:05;44.58;;;39.67;;
28904;SDS011;60848;53.884;11.446;2023-04-10T06:07:34;47.38;;;39.95;;
28904;SDS011;60848;53.884;11.446;2023-04-10T06:10:03;44.42;;;39.63;;
28904;SDS011;60848;53.884;11.446;2023-04-10T06:12:33;48.40;;;41.03;;
28904;SDS011;60848;53.884;11.446;2023-04-10T06:15:02;43.97;;;39.20;;
28904;SDS011;60848;53.884;11.446;2023-04-10T06:17:32;45.28;;;39.95;;
28904;SDS011;60848;53.884;11.446;2023-04-10T06:20:01;44.45;;;39.60;;
28904;SDS011;60848;53.884;11.446;2023-04-10T06:22:30;46.22;;;40.33;;
28904;SDS011;60848;53.884;11.446;2023-04-10T06:24:59;48.55;;;40.78;;
28904;SDS011;60848;53.884;11.446;2023-04-10T06:27:27;45.38;;;40.38;;
28904;SDS011;60848;53.884;11.446;2023-04-10T06:29:56;46.63;;;40.65;;
28904;SDS011;60848;53.884;11.446;2023-04-10T06:34:54;48.05;;;41.10;;
28904;SDS011;60848;53.884;11.446;2023-04-10T06:37:26;50.55;;;41.97;;
28904;SDS011;60848;53.884;11.446;2023-04-10T06:40:03;45.58;;;40.58;;
28904;SDS011;60848;53.884;11.446;2023-04-10T06:42:34;46.00;;;40.20;;
28904;SDS011;60848;53.884;11.446;2023-04-10T06:45:04;47.75;;;40.55;;
28904;SDS011;60848;53.884;11.446;2023-04-10T06:47:34;48.72;;;41.22;;
28904;SDS011;60848;53.884;11.446;2023-04-10T06:50:04;46.90;;;40.85;;
28904;SDS011;60848;53.884;11.446;2023-04-10T06:52:33;50.13;;;41.43;;
28904;SDS011;60848;53.884;11.446;2023-04-10T06:55:02;49.33;;;41.92;;
28904;SDS011;60848;53.884;11.446;2023-04-10T06:57:31;49.40;;;42.60;;
28904;SDS011;60848;53.884;11.446;2023-04-10T07:00:00;53.55;;;42.03;;
28904;SDS011;60848;53.884;11.446;2023-04-10T07:02:29;51.28;;;42.00;;
28904;SDS011;60848;53.884;11.446;2023-04-10T07:04:57;51.17;;;42.55;;
28904;SDS011;60848;53.884;11.446;2023-04-10T07:07:27;50.15;;;42.55;;
28904;SDS011;60848;53.884;11.446;2023-04-10T07:09:56;49.70;;;42.42;;
28904;SDS011;60848;53.884;11.446;2023-04-10T07:12:25;50.40;;;42.95;;
28904;SDS011;60848;53.884;11.446;2023-04-10T07:14:54;50.33;;;42.53;;
28904;SDS011;60848;53.884;11.446;2023-04-10T07:17:23;53.38;;;42.70;;
28904;SDS011;60848;53.884;11.446;2023-04-10T07:19:51;51.15;;;43.47;;
28904;SDS011;60848;53.884;11.446;2023-04-10T07:22:20;53.75;;;43.80;;
28904;SDS011;60848;53.884;11.446;2023-04-10T07:24:50;55.00;;;43.50;;
28904;SDS011;60848;53.884;11.446;2023-04-10T07:27:18;54.67;;;44.35;;
28904;SDS011;60848;53.884;11.446;2023-04-10T07:29:48;54.65;;;44.47;;
28904;SDS011;60848;53.884;11.446;2023-04-10T07:32:17;52.20;;;43.88;;
28904;SDS011;60848;53.884;11.446;2023-04-10T07:34:45;52.17;;;43.70;;
28904;SDS011;60848;53.884;11.446;2023-04-10T07:37:14;56.45;;;44.50;;
28904;SDS011;60848;53.884;11.446;2023-04-10T07:39:43;55.20;;;43.75;;
28904;SDS011;60848;53.884;11.446;2023-04-10T07:42:14;54.20;;;43.83;;
28904;SDS011;60848;53.884;11.446;2023-04-10T07:44:42;54.03;;;44.25;;
28904;SDS011;60848;53.884;11.446;2023-04-10T07:47:10;54.28;;;45.13;;
28904;SDS011;60848;53.884;11.446;2023-04-10T07:49:39;54.58;;;44.72;;
28904;SDS011;60848;53.884;11.446;2023-04-10T07:52:07;54.55;;;44.10;;
28904;SDS011;60848;53.884;11.446;2023-04-10T07:54:36;54.25;;;44.97;;
28904;SDS011;60848;53.884;11.446;2023-04-10T07:57:05;54.45;;;44.70;;
28904;SDS011;60848;53.884;11.446;2023-04-10T07:59:34;55.45;;;46.03;;
28904;SDS011;60848;53.884;11.446;2023-04-10T08:02:03;56.50;;;44.67;;
28904;SDS011;60848;53.884;11.446;2023-04-10T08:04:32;56.95;;;45.47;;
28904;SDS011;60848;53.884;11.446;2023-04-10T08:07:01;54.58;;;44.65;;
28904;SDS011;60848;53.884;11.446;2023-04-10T08:09:29;54.70;;;45.75;;
28904;SDS011;60848;53.884;11.446;2023-04-10T08:11:58;77.70;;;58.90;;
28904;SDS011;60848;53.884;11.446;2023-04-10T08:14:26;74.00;;;55.65;;
28904;SDS011;60848;53.884;11.446;2023-04-10T08:16:56;108.50;;;72.75;;
28904;SDS011;60848;53.884;11.446;2023-04-10T08:19:25;58.75;;;47.67;;
28904;SDS011;60848;53.884;11.446;2023-04-10T08:21:54;57.42;;;45.78;;
28904;SDS011;60848;53.884;11.446;2023-04-10T08:24:22;56.42;;;45.38;;
28904;SDS011;60848;53.884;11.446;2023-04-10T08:26:51;57.97;;;46.30;;
28904;SDS011;60848;53.884;11.446;2023-04-10T08:29:19;56.00;;;45.85;;
28904;SDS011;60848;53.884;11.446;2023-04-10T08:31:49;64.05;;;51.55;;
28904;SDS011;60848;53.884;11.446;2023-04-10T08:34:19;81.55;;;60.78;;
28904;SDS011;60848;53.884;11.446;2023-04-10T08:36:49;59.80;;;47.67;;
28904;SDS011;60848;53.884;11.446;2023-04-10T08:39:18;59.20;;;47.08;;
28904;SDS011;60848;53.884;11.446;2023-04-10T08:41:46;61.80;;;47.58;;
28904;SDS011;60848;53.884;11.446;2023-04-10T08:44:15;59.55;;;47.20;;
28904;SDS011;60848;53.884;11.446;2023-04-10T08:46:44;60.85;;;47.40;;
28904;SDS011;60848;53.884;11.446;2023-04-10T08:49:14;58.25;;;47.10;;
28904;SDS011;60848;53.884;11.446;2023-04-10T08:54:24;58.55;;;46.92;;
28904;SDS011;60848;53.884;11.446;2023-04-10T08:56:55;61.58;;;47.97;;
28904;SDS011;60848;53.884;11.446;2023-04-10T08:59:26;59.03;;;47.17;;
28904;SDS011;60848;53.884;11.446;2023-04-10T09:01:56;60.00;;;47.20;;
28904;SDS011;60848;53.884;11.446;2023-04-10T09:04:25;60.47;;;47.83;;
28904;SDS011;60848;53.884;11.446;2023-04-10T09:06:56;61.47;;;47.88;;
28904;SDS011;60848;53.884;11.446;2023-04-10T09:09:24;62.03;;;48.22;;
28904;SDS011;60848;53.884;11.446;2023-04-10T09:11:58;61.55;;;47.95;;
28904;SDS011;60848;53.884;11.446;2023-04-10T09:19:50;58.10;;;47.13;;
28904;SDS011;60848;53.884;11.446;2023-04-10T09:22:29;61.65;;;47.50;;
28904;SDS011;60848;53.884;11.446;2023-04-10T09:24:59;61.00;;;48.60;;
28904;SDS011;60848;53.884;11.446;2023-04-10T09:27:30;101.60;;;72.70;;
28904;SDS011;60848;53.884;11.446;2023-04-10T09:30:00;92.80;;;67.17;;
28904;SDS011;60848;53.884;11.446;2023-04-10T09:32:36;64.13;;;50.33;;
28904;SDS011;60848;53.884;11.446;2023-04-10T09:35:08;62.42;;;48.92;;
28904;SDS011;60848;53.884;11.446;2023-04-10T09:37:39;64.75;;;49.38;;
28904;SDS011;60848;53.884;11.446;2023-04-10T09:40:18;63.05;;;49.42;;
28904;SDS011;60848;53.884;11.446;2023-04-10T09:42:50;61.05;;;48.40;;
28904;SDS011;60848;53.884;11.446;2023-04-10T09:45:21;61.80;;;49.22;;
28904;SDS011;60848;53.884;11.446;2023-04-10T09:48:02;61.85;;;49.33;;
28904;SDS011;60848;53.884;11.446;2023-04-10T09:50:33;63.10;;;49.10;;
28904;SDS011;60848;53.884;11.446;2023-04-10T09:53:07;64.38;;;49.03;;
28904;SDS011;60848;53.884;11.446;2023-04-10T09:55:36;82.97;;;60.90;;
28904;SDS011;60848;53.884;11.446;2023-04-10T09:58:05;65.28;;;50.50;;
28904;SDS011;60848;53.884;11.446;2023-04-10T10:00:37;58.70;;;47.58;;
28904;SDS011;60848;53.884;11.446;2023-04-10T10:03:09;59.78;;;47.85;;
28904;SDS011;60848;53.884;11.446;2023-04-10T10:05:40;60.97;;;48.37;;
28904;SDS011;60848;53.884;11.446;2023-04-10T10:08:12;60.15;;;48.20;;
28904;SDS011;60848;53.884;11.446;2023-04-10T10:10:43;65.55;;;50.03;;
28904;SDS011;60848;53.884;11.446;2023-04-10T10:13:20;63.47;;;49.00;;
28904;SDS011;60848;53.884;11.446;2023-04-10T10:15:57;62.88;;;48.53;;
28904;SDS011;60848;53.884;11.446;2023-04-10T10:18:31;62.13;;;49.58;;
28904;SDS011;60848;53.884;11.446;2023-04-10T10:21:06;60.90;;;48.30;;
28904;SDS011;60848;53.884;11.446;2023-04-10T10:23:37;63.22;;;50.20;;
28904;SDS011;60848;53.884;11.446;2023-04-10T10:26:08;64.45;;;50.40;;
28904;SDS011;60848;53.884;11.446;2023-04-10T10:28:37;62.33;;;49.53;;
28904;SDS011;60848;53.884;11.446;2023-04-10T10:31:08;59.78;;;48.88;;
28904;SDS011;60848;53.884;11.446;2023-04-10T10:33:37;70.35;;;53.28;;
28904;SDS011;60848;53.884;11.446;2023-04-10T10:36:06;70.47;;;54.35;;
28904;SDS011;60848;53.884;11.446;2023-04-10T10:38:40;62.78;;;49.72;;
28904;SDS011;60848;53.884;11.446;2023-04-10T10:41:27;59.55;;;48.38;;
28904;SDS011;60848;53.884;11.446;2023-04-10T10:44:05;61.00;;;48.92;;
28904;SDS011;60848;53.884;11.446;2023-04-10T10:46:42;58.53;;;47.22;;
28904;SDS011;60848;53.884;11.446;2023-04-10T10:49:15;58.20;;;46.47;;
28904;SDS011;60848;53.884;11.446;2023-04-10T10:51:45;59.65;;;47.80;;
28904;SDS011;60848;53.884;11.446;2023-04-10T10:54:28;57.50;;;47.00;;
28904;SDS011;60848;53.884;11.446;2023-04-10T10:56:57;57.00;;;46.63;;
28904;SDS011;60848;53.884;11.446;2023-04-10T11:02:22;55.90;;;45.70;;
28904;SDS011;60848;53.884;11.446;2023-04-10T11:04:51;55.95;;;45.95;;
28904;SDS011;60848;53.884;11.446;2023-04-10T11:07:19;54.85;;;45.78;;
28904;SDS011;60848;53.884;11.446;2023-04-10T11:09:50;55.83;;;46.15;;
28904;SDS011;60848;53.884;11.446;2023-04-10T11:12:23;56.97;;;46.05;;
28904;SDS011;60848;53.884;11.446;2023-04-10T11:14:55;56.47;;;46.53;;
28904;SDS011;60848;53.884;11.446;2023-04-10T11:20:14;54.05;;;45.20;;
28904;SDS011;60848;53.884;11.446;2023-04-10T11:25:49;55.55;;;46.03;;
28904;SDS011;60848;53.884;11.446;2023-04-10T11:28:35;56.53;;;45.80;;
28904;SDS011;60848;53.884;11.446;2023-04-10T11:31:14;55.13;;;45.30;;
28904;SDS011;60848;53.884;11.446;2023-04-10T11:33:45;54.63;;;45.13;;
28904;SDS011;60848;53.884;11.446;2023-04-10T11:36:15;55.08;;;45.20;;
28904;SDS011;60848;53.884;11.446;2023-04-10T11:38:54;54.92;;;45.40;;
28904;SDS011;60848;53.884;11.446;2023-04-10T11:41:31;53.95;;;44.42;;
28904;SDS011;60848;53.884;11.446;2023-04-10T11:44:03;53.55;;;44.95;;
28904;SDS011;60848;53.884;11.446;2023-04-10T11:46:34;57.17;;;46.22;;
28904;SDS011;60848;53.884;11.446;2023-04-10T11:49:05;53.85;;;44.65;;
28904;SDS011;60848;53.884;11.446;2023-04-10T11:51:36;55.05;;;44.63;;
28904;SDS011;60848;53.884;11.446;2023-04-10T11:54:06;56.30;;;45.47;;
28904;SDS011;60848;53.884;11.446;2023-04-10T11:56:38;55.80;;;45.63;;
28904;SDS011;60848;53.884;11.446;2023-04-10T11:59:08;55.85;;;45.72;;
28904;SDS011;60848;53.884;11.446;2023-04-10T12:01:39;56.37;;;46.03;;
28904;SDS011;60848;53.884;11.446;2023-04-10T12:04:12;55.97;;;45.25;;
28904;SDS011;60848;53.884;11.446;2023-04-10T12:06:43;55.03;;;45.08;;
28904;SDS011;60848;53.884;11.446;2023-04-10T12:09:12;55.45;;;46.08;;
28904;SDS011;60848;53.884;11.446;2023-04-10T12:11:48;54.05;;;45.33;;
28904;SDS011;60848;53.884;11.446;2023-04-10T12:14:19;55.42;;;45.58;;
28904;SDS011;60848;53.884;11.446;2023-04-10T12:16:48;54.30;;;44.85;;
28904;SDS011;60848;53.884;11.446;2023-04-10T12:19:18;54.55;;;45.30;;
28904;SDS011;60848;53.884;11.446;2023-04-10T12:21:48;54.77;;;45.27;;
28904;SDS011;60848;53.884;11.446;2023-04-10T12:27:16;54.88;;;44.70;;
28904;SDS011;60848;53.884;11.446;2023-04-10T12:29:45;55.92;;;44.92;;
28904;SDS011;60848;53.884;11.446;2023-04-10T12:32:15;56.00;;;44.75;;
28904;SDS011;60848;53.884;11.446;2023-04-10T12:34:48;54.25;;;44.92;;
28904;SDS011;60848;53.884;11.446;2023-04-10T12:37:18;54.10;;;45.05;;
28904;SDS011;60848;53.884;11.446;2023-04-10T12:39:46;54.75;;;45.28;;
28904;SDS011;60848;53.884;11.446;2023-04-10T12:42:17;54.55;;;44.95;;
28904;SDS011;60848;53.884;11.446;2023-04-10T12:44:54;53.95;;;44.95;;
28904;SDS011;60848;53.884;11.446;2023-04-10T12:47:25;54.30;;;45.03;;
28904;SDS011;60848;53.884;11.446;2023-04-10T12:50:02;54.45;;;44.75;;
28904;SDS011;60848;53.884;11.446;2023-04-10T12:52:37;54.90;;;44.38;;
28904;SDS011;60848;53.884;11.446;2023-04-10T12:57:40;54.08;;;44.83;;
28904;SDS011;60848;53.884;11.446;2023-04-10T13:00:10;53.30;;;44.67;;
28904;SDS011;60848;53.884;11.446;2023-04-10T13:02:40;53.45;;;44.47;;
28904;SDS011;60848;53.884;11.446;2023-04-10T13:05:10;52.53;;;44.17;;
28904;SDS011;60848;53.884;11.446;2023-04-10T13:07:39;52.17;;;43.72;;
28904;SDS011;60848;53.884;11.446;2023-04-10T13:10:08;53.00;;;43.88;;
28904;SDS011;60848;53.884;11.446;2023-04-10T13:12:37;53.80;;;44.15;;
28904;SDS011;60848;53.884;11.446;2023-04-10T13:15:09;54.78;;;44.75;;
28904;SDS011;60848;53.884;11.446;2023-04-10T13:17:37;51.70;;;43.42;;
28904;SDS011;60848;53.884;11.446;2023-04-10T13:20:07;52.83;;;44.03;;
28904;SDS011;60848;53.884;11.446;2023-04-10T13:22:37;52.15;;;43.65;;
28904;SDS011;60848;53.884;11.446;2023-04-10T13:25:06;53.38;;;43.92;;
28904;SDS011;60848;53.884;11.446;2023-04-10T13:27:35;53.35;;;44.25;;
28904;SDS011;60848;53.884;11.446;2023-04-10T13:30:04;53.78;;;44.70;;
28904;SDS011;60848;53.884;11.446;2023-04-10T13:32:36;53.17;;;43.60;;
28904;SDS011;60848;53.884;11.446;2023-04-10T13:35:04;53.60;;;44.20;;
28904;SDS011;60848;53.884;11.446;2023-04-10T13:37:34;54.75;;;44.58;;
28904;SDS011;60848;53.884;11.446;2023-04-10T13:40:03;53.53;;;44.50;;
28904;SDS011;60848;53.884;11.446;2023-04-10T13:42:32;53.47;;;43.67;;
28904;SDS011;60848;53.884;11.446;2023-04-10T13:45:04;52.03;;;44.25;;
28904;SDS011;60848;53.884;11.446;2023-04-10T13:47:34;54.30;;;44.65;;
28904;SDS011;60848;53.884;11.446;2023-04-10T13:50:04;53.38;;;44.17;;
28904;SDS011;60848;53.884;11.446;2023-04-10T13:52:34;52.78;;;43.85;;
28904;SDS011;60848;53.884;11.446;2023-04-10T13:55:02;55.22;;;44.70;;
28904;SDS011;60848;53.884;11.446;2023-04-10T13:57:32;52.90;;;43.72;;
28904;SDS011;60848;53.884;11.446;2023-04-10T14:00:00;52.88;;;44.35;;
28904;SDS011;60848;53.884;11.446;2023-04-10T14:02:29;52.75;;;44.33;;
28904;SDS011;60848;53.884;11.446;2023-04-10T14:05:00;51.72;;;43.72;;
28904;SDS011;60848;53.884;11.446;2023-04-10T14:07:30;53.45;;;44.13;;
28904;SDS011;60848;53.884;11.446;2023-04-10T14:09:59;52.85;;;44.00;;
28904;SDS011;60848;53.884;11.446;2023-04-10T14:12:28;53.72;;;44.25;;
28904;SDS011;60848;53.884;11.446;2023-04-10T14:14:57;53.70;;;44.38;;
28904;SDS011;60848;53.884;11.446;2023-04-10T14:17:26;54.00;;;44.97;;
28904;SDS011;60848;53.884;11.446;2023-04-10T14:19:54;54.15;;;44.05;;
28904;SDS011;60848;53.884;11.446;2023-04-10T14:22:24;52.30;;;44.15;;
28904;SDS011;60848;53.884;11.446;2023-04-10T14:24:53;54.13;;;44.85;;
28904;SDS011;60848;53.884;11.446;2023-04-10T14:27:37;54.38;;;44.80;;
28904;SDS011;60848;53.884;11.446;2023-04-10T14:30:06;53.00;;;44.22;;
28904;SDS011;60848;53.884;11.446;2023-04-10T14:32:36;53.13;;;44.47;;
28904;SDS011;60848;53.884;11.446;2023-04-10T14:35:06;67.70;;;50.38;;
28904;SDS011;60848;53.884;11.446;2023-04-10T14:37:37;54.63;;;45.25;;
28904;SDS011;60848;53.884;11.446;2023-04-10T14:40:06;54.80;;;44.78;;
28904;SDS011;60848;53.884;11.446;2023-04-10T14:42:36;56.83;;;45.42;;
28904;SDS011;60848;53.884;11.446;2023-04-10T14:45:05;53.45;;;44.78;;
28904;SDS011;60848;53.884;11.446;2023-04-10T14:47:34;53.65;;;44.13;;
28904;SDS011;60848;53.884;11.446;2023-04-10T14:50:03;53.80;;;44.47;;
28904;SDS011;60848;53.884;11.446;2023-04-10T14:52:33;54.83;;;44.67;;
28904;SDS011;60848;53.884;11.446;2023-04-10T14:55:03;53.05;;;44.42;;
28904;SDS011;60848;53.884;11.446;2023-04-10T14:57:32;54.33;;;45.00;;
28904;SDS011;60848;53.884;11.446;2023-04-10T15:00:01;54.45;;;45.38;;
28904;SDS011;60848;53.884;11.446;2023-04-10T15:02:30;53.50;;;44.58;;
28904;SDS011;60848;53.884;11.446;2023-04-10T15:04:59;54.13;;;44.70;;
28904;SDS011;60848;53.884;11.446;2023-04-10T15:07:27;54.30;;;44.60;;
28904;SDS011;60848;53.884;11.446;2023-04-10T15:09:56;54.05;;;44.92;;
28904;SDS011;60848;53.884;11.446;2023-04-10T15:12:26;54.25;;;44.88;;
28904;SDS011;60848;53.884;11.446;2023-04-10T15:14:55;55.00;;;44.83;;
28904;SDS011;60848;53.884;11.446;2023-04-10T15:17:23;53.72;;;44.67;;
28904;SDS011;60848;53.884;11.446;2023-04-10T15:19:52;56.63;;;44.78;;
28904;SDS011;60848;53.884;11.446;2023-04-10T15:22:20;52.88;;;44.55;;
28904;SDS011;60848;53.884;11.446;2023-04-10T15:24:49;53.97;;;44.20;;
28904;SDS011;60848;53.884;11.446;2023-04-10T15:27:17;53.83;;;43.92;;
28904;SDS011;60848;53.884;11.446;2023-04-10T15:29:48;53.88;;;44.42;;
28904;SDS011;60848;53.884;11.446;2023-04-10T15:32:17;54.17;;;44.28;;
28904;SDS011;60848;53.884;11.446;2023-04-10T15:34:45;53.47;;;44.55;;
28904;SDS011;60848;53.884;11.446;2023-04-10T15:37:13;56.35;;;46.25;;
28904;SDS011;60848;53.884;11.446;2023-04-10T15:39:42;59.83;;;47.75;;
28904;SDS011;60848;53.884;11.446;2023-04-10T15:42:10;53.67;;;44.15;;
28904;SDS011;60848;53.884;11.446;2023-04-10T15:44:41;55.00;;;44.78;;
28904;SDS011;60848;53.884;11.446;2023-04-10T15:47:15;54.47;;;44.50;;
28904;SDS011;60848;53.884;11.446;2023-04-10T15:49:44;54.45;;;44.60;;
28904;SDS011;60848;53.884;11.446;2023-04-10T15:52:12;55.03;;;45.15;;
28904;SDS011;60848;53.884;11.446;2023-04-10T15:54:42;52.50;;;44.13;;
28904;SDS011;60848;53.884;11.446;2023-04-10T15:57:10;55.03;;;44.95;;
28904;SDS011;60848;53.884;11.446;2023-04-10T15:59:39;55.50;;;45.50;;
28904;SDS011;60848;53.884;11.446;2023-04-10T16:02:07;55.00;;;45.33;;
28904;SDS011;60848;53.884;11.446;2023-04-10T16:04:37;56.60;;;45.53;;
28904;SDS011;60848;53.884;11.446;2023-04-10T16:07:06;54.22;;;44.65;;
28904;SDS011;60848;53.884;11.446;2023-04-10T16:09:35;52.58;;;44.20;;
28904;SDS011;60848;53.884;11.446;2023-04-10T16:12:03;52.28;;;43.83;;
28904;SDS011;60848;53.884;11.446;2023-04-10T16:14:32;56.88;;;45.85;;
28904;SDS011;60848;53.884;11.446;2023-04-10T16:17:01;52.90;;;44.38;;
28904;SDS011;60848;53.884;11.446;2023-04-10T16:19:29;53.70;;;44.30;;
28904;SDS011;60848;53.884;11.446;2023-04-10T16:21:59;53.45;;;44.25;;
28904;SDS011;60848;53.884;11.446;2023-04-10T16:24:28;53.88;;;44.42;;
28904;SDS011;60848;53.884;11.446;2023-04-10T16:26:57;54.03;;;44.17;;
28904;SDS011;60848;53.884;11.446;2023-04-10T16:29:27;53.75;;;44.53;;
28904;SDS011;60848;53.884;11.446;2023-04-10T16:31:55;52.85;;;44.25;;
28904;SDS011;60848;53.884;11.446;2023-04-10T16:34:24;56.67;;;45.50;;
28904;SDS011;60848;53.884;11.446;2023-04-10T16:36:53;53.08;;;44.40;;
28904;SDS011;60848;53.884;11.446;2023-04-10T16:39:22;53.17;;;44.70;;
28904;SDS011;60848;53.884;11.446;2023-04-10T16:41:51;54.88;;;44.15;;
28904;SDS011;60848;53.884;11.446;2023-04-10T16:44:20;52.85;;;43.75;;
28904;SDS011;60848;53.884;11.446;2023-04-10T16:46:48;52.28;;;43.92;;
28904;SDS011;60848;53.884;11.446;2023-04-10T16:49:17;55.25;;;43.88;;
28904;SDS011;60848;53.884;11.446;2023-04-10T16:51:47;52.45;;;44.45;;
28904;SDS011;60848;53.884;11.446;2023-04-10T16:54:16;51.92;;;44.00;;
28904;SDS011;60848;53.884;11.446;2023-04-10T16:56:46;51.67;;;43.55;;
28904;SDS011;60848;53.884;11.446;2023-04-10T16:59:14;53.40;;;44.28;;
28904;SDS011;60848;53.884;11.446;2023-04-10T17:01:43;52.10;;;43.67;;
28904;SDS011;60848;53.884;11.446;2023-04-10T17:04:11;52.78;;;44.45;;
28904;SDS011;60848;53.884;11.446;2023-04-10T17:06:42;51.45;;;43.20;;
28904;SDS011;60848;53.884;11.446;2023-04-10T17:09:10;52.63;;;44.08;;
28904;SDS011;60848;53.884;11.446;2023-04-10T17:11:39;52.38;;;43.80;;
28904;SDS011;60848;53.884;11.446;2023-04-10T17:14:09;52.65;;;43.88;;
28904;SDS011;60848;53.884;11.446;2023-04-10T17:16:38;52.53;;;44.03;;
28904;SDS011;60848;53.884;11.446;2023-04-10T17:19:07;53.95;;;43.90;;
28904;SDS011;60848;53.884;11.446;2023-04-10T17:21:35;52.17;;;43.72;;
28904;SDS011;60848;53.884;11.446;2023-04-10T17:24:04;51.58;;;44.05;;
28904;SDS011;60848;53.884;11.446;2023-04-10T17:26:32;51.63;;;43.75;;
28904;SDS011;60848;53.884;11.446;2023-04-10T17:29:01;52.42;;;43.67;;
28904;SDS011;60848;53.884;11.446;2023-04-10T17:31:31;53.67;;;44.38;;
28904;SDS011;60848;53.884;11.446;2023-04-10T17:33:59;53.67;;;44.80;;
28904;SDS011;60848;53.884;11.446;2023-04-10T17:36:29;53.33;;;44.03;;
28904;SDS011;60848;53.884;11.446;2023-04-10T17:38:58;54.40;;;44.53;;
28904;SDS011;60848;53.884;11.446;2023-04-10T17:41:27;53.85;;;44.03;;
28904;SDS011;60848;53.884;11.446;2023-04-10T17:43:55;55.33;;;44.50;;
28904;SDS011;60848;53.884;11.446;2023-04-10T17:46:24;54.20;;;44.20;;
28904;SDS011;60848;53.884;11.446;2023-04-10T17:48:54;53.15;;;43.70;;
28904;SDS011;60848;53.884;11.446;2023-04-10T17:51:27;52.67;;;44.05;;
28904;SDS011;60848;53.884;11.446;2023-04-10T17:53:56;64.43;;;48.75;;
28904;SDS011;60848;53.884;11.446;2023-04-10T17:56:25;53.78;;;44.00;;
28904;SDS011;60848;53.884;11.446;2023-04-10T17:58:54;53.53;;;44.22;;
28904;SDS011;60848;53.884;11.446;2023-04-10T18:01:24;55.47;;;45.38;;
28904;SDS011;60848;53.884;11.446;2023-04-10T18:03:57;51.60;;;43.63;;